sensor_id;sensor_type;location;lat;lon;timestamp;P1;durP1;ratioP1;P2;durP2;ratioP2
52674;SDS011;38569;52.722;6.440;2024-01-30T00:01:51;24.85;;;19.20;;
52674;SDS011;38569;52.722;6.440;2024-01-30T00:04:17;26.30;;;19.55;;
52674;SDS011;38569;52.722;6.440;2024-01-30T00:06:43;26.88;;;20.80;;
52674;SDS011;38569;52.722;6.440;2024-01-30T00:09:09;26.02;;;19.42;;
52674;SDS011;38569;52.722;6.440;2024-01-30T00:11:36;25.63;;;19.95;;
52674;SDS011;38569;52.722;6.440;2024-01-30T00:14:02;29.23;;;19.33;;
52674;SDS011;38569;52.722;6.440;2024-01-30T00:16:28;22.65;;;18.35;;
52674;SDS011;38569;52.722;6.440;2024-01-30T00:18:54;26.25;;;18.40;;
52674;SDS011;38569;52.722;6.440;2024-01-30T00:21:20;26.02;;;18.77;;
52674;SDS011;38569;52.722;6.440;2024-01-30T00:23:46;26.77;;;18.98;;
52674;SDS011;38569;52.722;6.440;2024-01-30T00:26:11;33.00;;;19.45;;
52674;SDS011;38569;52.722;6.440;2024-01-30T00:28:38;24.83;;;19.75;;
52674;SDS011;38569;52.722;6.440;2024-01-30T00:31:04;29.95;;;19.85;;
52674;SDS011;38569;52.722;6.440;2024-01-30T00:33:29;25.95;;;18.55;;
52674;SDS011;38569;52.722;6.440;2024-01-30T00:35:55;32.63;;;21.08;;
52674;SDS011;38569;52.722;6.440;2024-01-30T00:38:21;24.27;;;18.35;;
52674;SDS011;38569;52.722;6.440;2024-01-30T00:40:47;29.55;;;19.83;;
52674;SDS011;38569;52.722;6.440;2024-01-30T00:43:13;28.00;;;20.13;;
52674;SDS011;38569;52.722;6.440;2024-01-30T00:45:39;23.65;;;17.92;;
52674;SDS011;38569;52.722;6.440;2024-01-30T00:48:05;28.02;;;18.25;;
52674;SDS011;38569;52.722;6.440;2024-01-30T00:50:31;23.30;;;18.95;;
52674;SDS011;38569;52.722;6.440;2024-01-30T00:52:56;27.40;;;19.35;;
52674;SDS011;38569;52.722;6.440;2024-01-30T00:55:22;26.50;;;20.55;;
52674;SDS011;38569;52.722;6.440;2024-01-30T00:57:48;29.63;;;21.42;;
52674;SDS011;38569;52.722;6.440;2024-01-30T01:00:14;28.13;;;20.13;;
52674;SDS011;38569;52.722;6.440;2024-01-30T01:02:43;26.30;;;20.02;;
52674;SDS011;38569;52.722;6.440;2024-01-30T01:05:09;29.42;;;19.92;;
52674;SDS011;38569;52.722;6.440;2024-01-30T01:07:35;26.85;;;19.92;;
52674;SDS011;38569;52.722;6.440;2024-01-30T01:10:01;27.55;;;20.92;;
52674;SDS011;38569;52.722;6.440;2024-01-30T01:12:28;29.25;;;20.15;;
52674;SDS011;38569;52.722;6.440;2024-01-30T01:14:54;27.85;;;20.30;;
52674;SDS011;38569;52.722;6.440;2024-01-30T01:17:20;30.13;;;22.95;;
52674;SDS011;38569;52.722;6.440;2024-01-30T01:19:46;31.10;;;22.60;;
52674;SDS011;38569;52.722;6.440;2024-01-30T01:22:11;30.80;;;23.20;;
52674;SDS011;38569;52.722;6.440;2024-01-30T01:24:37;30.73;;;24.27;;
52674;SDS011;38569;52.722;6.440;2024-01-30T01:27:03;31.80;;;21.13;;
52674;SDS011;38569;52.722;6.440;2024-01-30T01:29:30;29.75;;;20.80;;
52674;SDS011;38569;52.722;6.440;2024-01-30T01:31:57;32.05;;;22.88;;
52674;SDS011;38569;52.722;6.440;2024-01-30T01:34:23;29.10;;;22.33;;
52674;SDS011;38569;52.722;6.440;2024-01-30T01:36:50;30.35;;;21.63;;
52674;SDS011;38569;52.722;6.440;2024-01-30T01:39:16;27.48;;;19.98;;
52674;SDS011;38569;52.722;6.440;2024-01-30T01:41:42;29.88;;;21.92;;
52674;SDS011;38569;52.722;6.440;2024-01-30T01:44:08;29.40;;;22.20;;
52674;SDS011;38569;52.722;6.440;2024-01-30T01:46:34;28.90;;;23.52;;
52674;SDS011;38569;52.722;6.440;2024-01-30T01:49:04;31.23;;;21.70;;
52674;SDS011;38569;52.722;6.440;2024-01-30T01:51:31;29.45;;;23.23;;
52674;SDS011;38569;52.722;6.440;2024-01-30T01:53:59;34.25;;;21.52;;
52674;SDS011;38569;52.722;6.440;2024-01-30T01:56:28;31.23;;;21.02;;
52674;SDS011;38569;52.722;6.440;2024-01-30T01:58:55;24.17;;;18.55;;
52674;SDS011;38569;52.722;6.440;2024-01-30T02:01:26;29.60;;;21.35;;
52674;SDS011;38569;52.722;6.440;2024-01-30T02:03:54;25.65;;;20.50;;
52674;SDS011;38569;52.722;6.440;2024-01-30T02:06:19;25.52;;;20.30;;
52674;SDS011;38569;52.722;6.440;2024-01-30T02:08:45;26.42;;;21.17;;
52674;SDS011;38569;52.722;6.440;2024-01-30T02:11:11;27.23;;;19.92;;
52674;SDS011;38569;52.722;6.440;2024-01-30T02:13:37;27.02;;;22.85;;
52674;SDS011;38569;52.722;6.440;2024-01-30T02:16:02;26.75;;;20.30;;
52674;SDS011;38569;52.722;6.440;2024-01-30T02:18:28;25.90;;;19.67;;
52674;SDS011;38569;52.722;6.440;2024-01-30T02:20:56;26.77;;;20.67;;
52674;SDS011;38569;52.722;6.440;2024-01-30T02:23:26;24.98;;;19.58;;
52674;SDS011;38569;52.722;6.440;2024-01-30T02:25:52;24.92;;;19.95;;
52674;SDS011;38569;52.722;6.440;2024-01-30T02:28:18;24.77;;;20.08;;
52674;SDS011;38569;52.722;6.440;2024-01-30T02:30:45;28.13;;;21.10;;
52674;SDS011;38569;52.722;6.440;2024-01-30T02:33:11;25.42;;;18.83;;
52674;SDS011;38569;52.722;6.440;2024-01-30T02:35:38;28.00;;;19.20;;
52674;SDS011;38569;52.722;6.440;2024-01-30T02:38:03;24.73;;;18.38;;
52674;SDS011;38569;52.722;6.440;2024-01-30T02:40:30;25.55;;;19.52;;
52674;SDS011;38569;52.722;6.440;2024-01-30T02:42:59;29.67;;;21.45;;
52674;SDS011;38569;52.722;6.440;2024-01-30T02:45:26;25.75;;;20.25;;
52674;SDS011;38569;52.722;6.440;2024-01-30T02:47:52;28.05;;;19.17;;
52674;SDS011;38569;52.722;6.440;2024-01-30T02:50:18;25.60;;;18.90;;
52674;SDS011;38569;52.722;6.440;2024-01-30T02:52:43;29.30;;;20.38;;
52674;SDS011;38569;52.722;6.440;2024-01-30T02:55:09;24.30;;;18.85;;
52674;SDS011;38569;52.722;6.440;2024-01-30T02:57:36;26.88;;;20.48;;
52674;SDS011;38569;52.722;6.440;2024-01-30T03:00:02;22.38;;;19.20;;
52674;SDS011;38569;52.722;6.440;2024-01-30T03:02:29;31.23;;;21.42;;
52674;SDS011;38569;52.722;6.440;2024-01-30T03:04:54;23.30;;;18.33;;
52674;SDS011;38569;52.722;6.440;2024-01-30T03:07:20;24.48;;;17.88;;
52674;SDS011;38569;52.722;6.440;2024-01-30T03:09:46;28.88;;;20.10;;
52674;SDS011;38569;52.722;6.440;2024-01-30T03:12:11;24.23;;;17.17;;
52674;SDS011;38569;52.722;6.440;2024-01-30T03:14:37;26.20;;;18.58;;
52674;SDS011;38569;52.722;6.440;2024-01-30T03:17:03;25.33;;;17.25;;
52674;SDS011;38569;52.722;6.440;2024-01-30T03:19:28;27.77;;;18.08;;
52674;SDS011;38569;52.722;6.440;2024-01-30T03:21:54;24.67;;;17.90;;
52674;SDS011;38569;52.722;6.440;2024-01-30T03:24:20;24.10;;;17.50;;
52674;SDS011;38569;52.722;6.440;2024-01-30T03:26:46;25.05;;;18.60;;
52674;SDS011;38569;52.722;6.440;2024-01-30T03:29:11;22.05;;;17.38;;
52674;SDS011;38569;52.722;6.440;2024-01-30T03:31:38;27.63;;;19.17;;
52674;SDS011;38569;52.722;6.440;2024-01-30T03:34:04;28.33;;;20.08;;
52674;SDS011;38569;52.722;6.440;2024-01-30T03:36:30;23.75;;;18.17;;
52674;SDS011;38569;52.722;6.440;2024-01-30T03:38:58;22.40;;;17.30;;
52674;SDS011;38569;52.722;6.440;2024-01-30T03:41:24;25.45;;;17.83;;
52674;SDS011;38569;52.722;6.440;2024-01-30T03:43:50;24.92;;;17.30;;
52674;SDS011;38569;52.722;6.440;2024-01-30T03:46:15;24.08;;;17.27;;
52674;SDS011;38569;52.722;6.440;2024-01-30T03:48:41;26.95;;;18.10;;
52674;SDS011;38569;52.722;6.440;2024-01-30T03:51:07;22.58;;;17.50;;
52674;SDS011;38569;52.722;6.440;2024-01-30T03:53:33;20.98;;;16.63;;
52674;SDS011;38569;52.722;6.440;2024-01-30T03:55:59;23.88;;;17.02;;
52674;SDS011;38569;52.722;6.440;2024-01-30T03:58:25;24.25;;;17.10;;
52674;SDS011;38569;52.722;6.440;2024-01-30T04:00:50;24.58;;;15.77;;
52674;SDS011;38569;52.722;6.440;2024-01-30T04:03:16;21.52;;;15.95;;
52674;SDS011;38569;52.722;6.440;2024-01-30T04:05:42;22.33;;;15.35;;
52674;SDS011;38569;52.722;6.440;2024-01-30T04:08:08;20.13;;;15.32;;
52674;SDS011;38569;52.722;6.440;2024-01-30T04:10:34;20.50;;;14.70;;
52674;SDS011;38569;52.722;6.440;2024-01-30T04:13:00;20.88;;;15.38;;
52674;SDS011;38569;52.722;6.440;2024-01-30T04:15:26;21.83;;;16.55;;
52674;SDS011;38569;52.722;6.440;2024-01-30T04:17:52;22.55;;;15.50;;
52674;SDS011;38569;52.722;6.440;2024-01-30T04:20:17;20.98;;;14.55;;
52674;SDS011;38569;52.722;6.440;2024-01-30T04:22:43;20.90;;;14.93;;
52674;SDS011;38569;52.722;6.440;2024-01-30T04:25:10;20.90;;;14.55;;
52674;SDS011;38569;52.722;6.440;2024-01-30T04:27:36;18.30;;;14.30;;
52674;SDS011;38569;52.722;6.440;2024-01-30T04:30:02;19.50;;;14.45;;
52674;SDS011;38569;52.722;6.440;2024-01-30T04:32:28;19.75;;;14.55;;
52674;SDS011;38569;52.722;6.440;2024-01-30T04:34:56;20.45;;;14.25;;
52674;SDS011;38569;52.722;6.440;2024-01-30T04:37:21;19.38;;;15.30;;
52674;SDS011;38569;52.722;6.440;2024-01-30T04:39:48;20.65;;;13.82;;
52674;SDS011;38569;52.722;6.440;2024-01-30T04:42:14;17.73;;;13.98;;
52674;SDS011;38569;52.722;6.440;2024-01-30T04:44:39;21.48;;;14.30;;
52674;SDS011;38569;52.722;6.440;2024-01-30T04:47:05;17.75;;;14.00;;
52674;SDS011;38569;52.722;6.440;2024-01-30T04:49:34;16.60;;;13.45;;
52674;SDS011;38569;52.722;6.440;2024-01-30T04:52:00;17.77;;;13.20;;
52674;SDS011;38569;52.722;6.440;2024-01-30T04:54:26;19.55;;;14.02;;
52674;SDS011;38569;52.722;6.440;2024-01-30T04:56:52;17.15;;;13.48;;
52674;SDS011;38569;52.722;6.440;2024-01-30T04:59:17;16.90;;;13.05;;
52674;SDS011;38569;52.722;6.440;2024-01-30T05:01:43;18.15;;;13.50;;
52674;SDS011;38569;52.722;6.440;2024-01-30T05:04:09;20.63;;;13.48;;
52674;SDS011;38569;52.722;6.440;2024-01-30T05:06:36;21.15;;;13.77;;
52674;SDS011;38569;52.722;6.440;2024-01-30T05:09:01;16.35;;;12.63;;
52674;SDS011;38569;52.722;6.440;2024-01-30T05:11:29;20.23;;;13.52;;
52674;SDS011;38569;52.722;6.440;2024-01-30T05:13:55;17.83;;;13.32;;
52674;SDS011;38569;52.722;6.440;2024-01-30T05:16:21;21.05;;;13.48;;
52674;SDS011;38569;52.722;6.440;2024-01-30T05:18:47;18.13;;;12.93;;
52674;SDS011;38569;52.722;6.440;2024-01-30T05:21:13;16.38;;;12.73;;
52674;SDS011;38569;52.722;6.440;2024-01-30T05:23:39;18.35;;;12.82;;
52674;SDS011;38569;52.722;6.440;2024-01-30T05:26:07;18.27;;;12.40;;
52674;SDS011;38569;52.722;6.440;2024-01-30T05:28:33;18.55;;;13.50;;
52674;SDS011;38569;52.722;6.440;2024-01-30T05:30:59;19.02;;;13.13;;
52674;SDS011;38569;52.722;6.440;2024-01-30T05:33:24;21.35;;;14.02;;
52674;SDS011;38569;52.722;6.440;2024-01-30T05:35:50;19.75;;;13.23;;
52674;SDS011;38569;52.722;6.440;2024-01-30T05:38:19;21.88;;;13.65;;
52674;SDS011;38569;52.722;6.440;2024-01-30T05:40:45;20.33;;;12.90;;
52674;SDS011;38569;52.722;6.440;2024-01-30T05:43:11;16.40;;;13.02;;
52674;SDS011;38569;52.722;6.440;2024-01-30T05:45:37;18.65;;;12.65;;
52674;SDS011;38569;52.722;6.440;2024-01-30T05:48:03;15.73;;;12.23;;
52674;SDS011;38569;52.722;6.440;2024-01-30T05:50:29;19.17;;;12.82;;
52674;SDS011;38569;52.722;6.440;2024-01-30T05:52:55;16.77;;;11.65;;
52674;SDS011;38569;52.722;6.440;2024-01-30T05:55:21;20.75;;;11.23;;
52674;SDS011;38569;52.722;6.440;2024-01-30T05:57:47;17.30;;;11.45;;
52674;SDS011;38569;52.722;6.440;2024-01-30T06:00:13;17.40;;;12.90;;
52674;SDS011;38569;52.722;6.440;2024-01-30T06:02:39;20.10;;;12.95;;
52674;SDS011;38569;52.722;6.440;2024-01-30T06:05:05;17.05;;;11.70;;
52674;SDS011;38569;52.722;6.440;2024-01-30T06:07:31;16.90;;;12.82;;
52674;SDS011;38569;52.722;6.440;2024-01-30T06:09:57;17.20;;;12.13;;
52674;SDS011;38569;52.722;6.440;2024-01-30T06:12:22;15.80;;;12.60;;
52674;SDS011;38569;52.722;6.440;2024-01-30T06:14:48;18.63;;;12.68;;
52674;SDS011;38569;52.722;6.440;2024-01-30T06:17:14;16.50;;;11.48;;
52674;SDS011;38569;52.722;6.440;2024-01-30T06:19:40;16.23;;;11.98;;
52674;SDS011;38569;52.722;6.440;2024-01-30T06:22:06;15.85;;;11.38;;
52674;SDS011;38569;52.722;6.440;2024-01-30T06:24:31;15.43;;;11.50;;
52674;SDS011;38569;52.722;6.440;2024-01-30T06:26:58;16.45;;;12.30;;
52674;SDS011;38569;52.722;6.440;2024-01-30T06:29:24;15.48;;;10.85;;
52674;SDS011;38569;52.722;6.440;2024-01-30T06:31:51;15.60;;;11.15;;
52674;SDS011;38569;52.722;6.440;2024-01-30T06:34:17;18.85;;;11.77;;
52674;SDS011;38569;52.722;6.440;2024-01-30T06:36:44;18.58;;;13.02;;
52674;SDS011;38569;52.722;6.440;2024-01-30T06:39:09;17.20;;;12.70;;
52674;SDS011;38569;52.722;6.440;2024-01-30T06:41:35;17.73;;;12.40;;
52674;SDS011;38569;52.722;6.440;2024-01-30T06:44:04;17.63;;;12.80;;
52674;SDS011;38569;52.722;6.440;2024-01-30T06:46:31;16.70;;;11.98;;
52674;SDS011;38569;52.722;6.440;2024-01-30T06:48:57;18.15;;;12.32;;
52674;SDS011;38569;52.722;6.440;2024-01-30T06:51:23;20.95;;;11.98;;
52674;SDS011;38569;52.722;6.440;2024-01-30T06:53:49;16.20;;;12.55;;
52674;SDS011;38569;52.722;6.440;2024-01-30T06:56:15;15.75;;;11.95;;
52674;SDS011;38569;52.722;6.440;2024-01-30T06:58:45;14.40;;;10.95;;
52674;SDS011;38569;52.722;6.440;2024-01-30T07:01:14;14.98;;;11.48;;
52674;SDS011;38569;52.722;6.440;2024-01-30T07:03:41;17.45;;;12.05;;
52674;SDS011;38569;52.722;6.440;2024-01-30T07:06:07;19.02;;;12.13;;
52674;SDS011;38569;52.722;6.440;2024-01-30T07:08:33;19.40;;;12.68;;
52674;SDS011;38569;52.722;6.440;2024-01-30T07:10:58;17.67;;;12.05;;
52674;SDS011;38569;52.722;6.440;2024-01-30T07:13:24;16.00;;;11.60;;
52674;SDS011;38569;52.722;6.440;2024-01-30T07:15:50;20.08;;;11.65;;
52674;SDS011;38569;52.722;6.440;2024-01-30T07:18:16;20.10;;;13.00;;
52674;SDS011;38569;52.722;6.440;2024-01-30T07:20:41;17.65;;;12.25;;
52674;SDS011;38569;52.722;6.440;2024-01-30T07:23:14;14.60;;;11.10;;
52674;SDS011;38569;52.722;6.440;2024-01-30T07:25:45;17.40;;;12.45;;
52674;SDS011;38569;52.722;6.440;2024-01-30T07:28:13;15.95;;;11.88;;
52674;SDS011;38569;52.722;6.440;2024-01-30T07:30:42;15.98;;;11.90;;
52674;SDS011;38569;52.722;6.440;2024-01-30T07:33:08;16.30;;;11.38;;
52674;SDS011;38569;52.722;6.440;2024-01-30T07:35:34;14.68;;;10.73;;
52674;SDS011;38569;52.722;6.440;2024-01-30T07:38:00;16.60;;;11.95;;
52674;SDS011;38569;52.722;6.440;2024-01-30T07:40:26;14.25;;;10.98;;
52674;SDS011;38569;52.722;6.440;2024-01-30T07:42:53;16.55;;;12.35;;
52674;SDS011;38569;52.722;6.440;2024-01-30T07:45:18;17.27;;;13.48;;
52674;SDS011;38569;52.722;6.440;2024-01-30T07:47:48;20.10;;;13.52;;
52674;SDS011;38569;52.722;6.440;2024-01-30T07:50:14;19.77;;;12.25;;
52674;SDS011;38569;52.722;6.440;2024-01-30T07:52:40;25.27;;;14.10;;
52674;SDS011;38569;52.722;6.440;2024-01-30T07:55:06;19.75;;;13.02;;
52674;SDS011;38569;52.722;6.440;2024-01-30T07:57:33;17.60;;;12.25;;
52674;SDS011;38569;52.722;6.440;2024-01-30T07:59:59;18.40;;;12.13;;
52674;SDS011;38569;52.722;6.440;2024-01-30T08:02:25;19.45;;;12.32;;
52674;SDS011;38569;52.722;6.440;2024-01-30T08:04:51;14.98;;;11.00;;
52674;SDS011;38569;52.722;6.440;2024-01-30T08:07:17;17.13;;;12.18;;
52674;SDS011;38569;52.722;6.440;2024-01-30T08:09:43;15.23;;;11.20;;
52674;SDS011;38569;52.722;6.440;2024-01-30T08:12:09;14.45;;;10.80;;
52674;SDS011;38569;52.722;6.440;2024-01-30T08:14:35;16.05;;;11.25;;
52674;SDS011;38569;52.722;6.440;2024-01-30T08:17:00;15.73;;;11.25;;
52674;SDS011;38569;52.722;6.440;2024-01-30T08:19:26;16.58;;;10.48;;
52674;SDS011;38569;52.722;6.440;2024-01-30T08:21:52;15.23;;;10.95;;
52674;SDS011;38569;52.722;6.440;2024-01-30T08:24:17;16.42;;;10.35;;
52674;SDS011;38569;52.722;6.440;2024-01-30T08:26:43;14.90;;;10.48;;
52674;SDS011;38569;52.722;6.440;2024-01-30T08:29:09;14.45;;;10.35;;
52674;SDS011;38569;52.722;6.440;2024-01-30T08:31:35;14.00;;;10.57;;
52674;SDS011;38569;52.722;6.440;2024-01-30T08:34:01;15.00;;;11.20;;
52674;SDS011;38569;52.722;6.440;2024-01-30T08:36:26;15.60;;;11.68;;
52674;SDS011;38569;52.722;6.440;2024-01-30T08:38:52;15.65;;;10.05;;
52674;SDS011;38569;52.722;6.440;2024-01-30T08:41:18;13.02;;;9.68;;
52674;SDS011;38569;52.722;6.440;2024-01-30T08:43:43;16.10;;;10.35;;
52674;SDS011;38569;52.722;6.440;2024-01-30T08:46:10;15.00;;;10.27;;
52674;SDS011;38569;52.722;6.440;2024-01-30T08:48:36;18.63;;;10.60;;
52674;SDS011;38569;52.722;6.440;2024-01-30T08:51:01;15.25;;;10.35;;
52674;SDS011;38569;52.722;6.440;2024-01-30T08:53:27;14.48;;;11.00;;
52674;SDS011;38569;52.722;6.440;2024-01-30T08:55:53;15.43;;;10.35;;
52674;SDS011;38569;52.722;6.440;2024-01-30T08:58:19;14.23;;;10.20;;
52674;SDS011;38569;52.722;6.440;2024-01-30T09:00:44;16.65;;;9.65;;
52674;SDS011;38569;52.722;6.440;2024-01-30T09:03:10;16.05;;;10.18;;
52674;SDS011;38569;52.722;6.440;2024-01-30T09:05:36;16.85;;;10.73;;
52674;SDS011;38569;52.722;6.440;2024-01-30T09:08:02;16.00;;;11.00;;
52674;SDS011;38569;52.722;6.440;2024-01-30T09:10:27;16.23;;;11.18;;
52674;SDS011;38569;52.722;6.440;2024-01-30T09:12:53;13.50;;;10.30;;
52674;SDS011;38569;52.722;6.440;2024-01-30T09:15:19;12.85;;;9.80;;
52674;SDS011;38569;52.722;6.440;2024-01-30T09:17:45;13.18;;;10.18;;
52674;SDS011;38569;52.722;6.440;2024-01-30T09:20:11;13.95;;;10.75;;
52674;SDS011;38569;52.722;6.440;2024-01-30T09:22:36;14.50;;;10.80;;
52674;SDS011;38569;52.722;6.440;2024-01-30T09:25:03;15.07;;;9.77;;
52674;SDS011;38569;52.722;6.440;2024-01-30T09:27:29;10.88;;;9.52;;
52674;SDS011;38569;52.722;6.440;2024-01-30T09:29:54;15.48;;;9.48;;
52674;SDS011;38569;52.722;6.440;2024-01-30T09:32:21;15.00;;;9.77;;
52674;SDS011;38569;52.722;6.440;2024-01-30T09:34:46;14.90;;;9.88;;
52674;SDS011;38569;52.722;6.440;2024-01-30T09:37:12;14.35;;;9.50;;
52674;SDS011;38569;52.722;6.440;2024-01-30T09:39:40;19.75;;;10.52;;
52674;SDS011;38569;52.722;6.440;2024-01-30T09:44:35;16.35;;;9.85;;
52674;SDS011;38569;52.722;6.440;2024-01-30T09:47:02;16.23;;;9.88;;
52674;SDS011;38569;52.722;6.440;2024-01-30T09:49:31;15.88;;;10.32;;
52674;SDS011;38569;52.722;6.440;2024-01-30T09:51:58;16.05;;;9.82;;
52674;SDS011;38569;52.722;6.440;2024-01-30T09:54:23;16.65;;;9.93;;
52674;SDS011;38569;52.722;6.440;2024-01-30T09:56:49;21.35;;;10.15;;
52674;SDS011;38569;52.722;6.440;2024-01-30T09:59:15;18.58;;;10.32;;
52674;SDS011;38569;52.722;6.440;2024-01-30T10:01:41;14.27;;;9.18;;
52674;SDS011;38569;52.722;6.440;2024-01-30T10:04:08;15.68;;;9.40;;
52674;SDS011;38569;52.722;6.440;2024-01-30T10:06:35;15.50;;;9.57;;
52674;SDS011;38569;52.722;6.440;2024-01-30T10:09:01;17.90;;;9.90;;
52674;SDS011;38569;52.722;6.440;2024-01-30T10:11:27;15.38;;;9.82;;
52674;SDS011;38569;52.722;6.440;2024-01-30T10:13:53;16.23;;;9.85;;
52674;SDS011;38569;52.722;6.440;2024-01-30T10:16:21;14.43;;;8.98;;
52674;SDS011;38569;52.722;6.440;2024-01-30T10:18:47;11.98;;;9.20;;
52674;SDS011;38569;52.722;6.440;2024-01-30T10:21:12;12.20;;;9.80;;
52674;SDS011;38569;52.722;6.440;2024-01-30T10:23:38;13.30;;;8.77;;
52674;SDS011;38569;52.722;6.440;2024-01-30T10:26:04;10.57;;;8.52;;
52674;SDS011;38569;52.722;6.440;2024-01-30T10:28:30;17.42;;;9.70;;
52674;SDS011;38569;52.722;6.440;2024-01-30T10:30:59;19.38;;;9.77;;
52674;SDS011;38569;52.722;6.440;2024-01-30T10:33:28;17.00;;;9.23;;
52674;SDS011;38569;52.722;6.440;2024-01-30T10:35:55;16.30;;;10.07;;
52674;SDS011;38569;52.722;6.440;2024-01-30T10:38:25;15.48;;;10.50;;
52674;SDS011;38569;52.722;6.440;2024-01-30T10:40:55;18.35;;;9.20;;
52674;SDS011;38569;52.722;6.440;2024-01-30T10:43:22;14.00;;;9.75;;
52674;SDS011;38569;52.722;6.440;2024-01-30T10:45:49;16.13;;;9.57;;
52674;SDS011;38569;52.722;6.440;2024-01-30T10:48:18;13.32;;;9.00;;
52674;SDS011;38569;52.722;6.440;2024-01-30T10:50:48;15.88;;;9.63;;
52674;SDS011;38569;52.722;6.440;2024-01-30T10:53:16;17.05;;;9.60;;
52674;SDS011;38569;52.722;6.440;2024-01-30T10:55:44;13.27;;;8.90;;
52674;SDS011;38569;52.722;6.440;2024-01-30T10:58:12;18.90;;;9.60;;
52674;SDS011;38569;52.722;6.440;2024-01-30T11:00:39;15.20;;;9.35;;
52674;SDS011;38569;52.722;6.440;2024-01-30T11:03:06;18.20;;;9.45;;
52674;SDS011;38569;52.722;6.440;2024-01-30T11:05:33;18.60;;;9.43;;
52674;SDS011;38569;52.722;6.440;2024-01-30T11:07:58;16.25;;;9.68;;
52674;SDS011;38569;52.722;6.440;2024-01-30T11:10:24;24.52;;;11.23;;
52674;SDS011;38569;52.722;6.440;2024-01-30T11:12:50;15.50;;;10.07;;
52674;SDS011;38569;52.722;6.440;2024-01-30T11:15:16;17.92;;;10.40;;
52674;SDS011;38569;52.722;6.440;2024-01-30T11:17:49;20.00;;;11.57;;
52674;SDS011;38569;52.722;6.440;2024-01-30T11:20:27;17.75;;;10.48;;
52674;SDS011;38569;52.722;6.440;2024-01-30T11:22:56;14.65;;;11.05;;
52674;SDS011;38569;52.722;6.440;2024-01-30T11:25:23;18.13;;;11.02;;
52674;SDS011;38569;52.722;6.440;2024-01-30T11:27:50;18.08;;;10.70;;
52674;SDS011;38569;52.722;6.440;2024-01-30T11:33:05;21.80;;;12.20;;
52674;SDS011;38569;52.722;6.440;2024-01-30T11:35:38;19.63;;;10.60;;
52674;SDS011;38569;52.722;6.440;2024-01-30T11:38:08;18.23;;;10.32;;
52674;SDS011;38569;52.722;6.440;2024-01-30T11:40:36;18.70;;;11.00;;
52674;SDS011;38569;52.722;6.440;2024-01-30T11:43:03;17.30;;;10.00;;
52674;SDS011;38569;52.722;6.440;2024-01-30T11:45:30;16.15;;;10.40;;
52674;SDS011;38569;52.722;6.440;2024-01-30T11:47:57;14.82;;;10.10;;
52674;SDS011;38569;52.722;6.440;2024-01-30T11:50:25;15.77;;;9.60;;
52674;SDS011;38569;52.722;6.440;2024-01-30T11:52:51;17.83;;;12.15;;
52674;SDS011;38569;52.722;6.440;2024-01-30T11:55:17;16.85;;;9.50;;
52674;SDS011;38569;52.722;6.440;2024-01-30T11:57:43;14.27;;;9.07;;
52674;SDS011;38569;52.722;6.440;2024-01-30T12:00:16;16.58;;;9.27;;
52674;SDS011;38569;52.722;6.440;2024-01-30T12:02:49;13.63;;;9.98;;
52674;SDS011;38569;52.722;6.440;2024-01-30T12:05:19;13.30;;;8.85;;
52674;SDS011;38569;52.722;6.440;2024-01-30T12:07:45;12.00;;;8.70;;
52674;SDS011;38569;52.722;6.440;2024-01-30T12:10:12;14.15;;;9.00;;
52674;SDS011;38569;52.722;6.440;2024-01-30T12:12:44;11.52;;;8.68;;
52674;SDS011;38569;52.722;6.440;2024-01-30T12:15:16;19.30;;;9.15;;
52674;SDS011;38569;52.722;6.440;2024-01-30T12:17:43;13.43;;;8.88;;
52674;SDS011;38569;52.722;6.440;2024-01-30T12:20:10;13.02;;;8.48;;
52674;SDS011;38569;52.722;6.440;2024-01-30T12:22:40;13.68;;;8.77;;
52674;SDS011;38569;52.722;6.440;2024-01-30T12:25:40;10.55;;;8.15;;
52674;SDS011;38569;52.722;6.440;2024-01-30T12:27:59;15.68;;;9.05;;
52674;SDS011;38569;52.722;6.440;2024-01-30T12:30:25;15.10;;;6.85;;
52674;SDS011;38569;52.722;6.440;2024-01-30T12:32:53;18.40;;;7.97;;
52674;SDS011;38569;52.722;6.440;2024-01-30T12:35:20;10.10;;;5.57;;
52674;SDS011;38569;52.722;6.440;2024-01-30T12:37:46;13.48;;;6.88;;
52674;SDS011;38569;52.722;6.440;2024-01-30T12:40:16;15.85;;;6.53;;
52674;SDS011;38569;52.722;6.440;2024-01-30T12:42:42;13.70;;;7.35;;
52674;SDS011;38569;52.722;6.440;2024-01-30T12:45:13;22.50;;;9.43;;
52674;SDS011;38569;52.722;6.440;2024-01-30T12:47:40;10.60;;;4.85;;
52674;SDS011;38569;52.722;6.440;2024-01-30T12:50:06;9.30;;;4.20;;
52674;SDS011;38569;52.722;6.440;2024-01-30T12:52:32;8.77;;;4.80;;
52674;SDS011;38569;52.722;6.440;2024-01-30T12:54:58;11.88;;;3.67;;
52674;SDS011;38569;52.722;6.440;2024-01-30T12:57:24;10.13;;;4.20;;
52674;SDS011;38569;52.722;6.440;2024-01-30T12:59:49;9.40;;;3.80;;
52674;SDS011;38569;52.722;6.440;2024-01-30T13:02:15;9.65;;;4.93;;
52674;SDS011;38569;52.722;6.440;2024-01-30T13:04:41;6.68;;;3.85;;
52674;SDS011;38569;52.722;6.440;2024-01-30T13:07:08;6.78;;;3.55;;
52674;SDS011;38569;52.722;6.440;2024-01-30T13:09:33;8.00;;;3.42;;
52674;SDS011;38569;52.722;6.440;2024-01-30T13:11:59;6.38;;;4.10;;
52674;SDS011;38569;52.722;6.440;2024-01-30T13:14:25;5.70;;;3.80;;
52674;SDS011;38569;52.722;6.440;2024-01-30T13:16:51;6.68;;;4.30;;
52674;SDS011;38569;52.722;6.440;2024-01-30T13:19:17;7.75;;;3.47;;
52674;SDS011;38569;52.722;6.440;2024-01-30T13:21:43;5.93;;;4.03;;
52674;SDS011;38569;52.722;6.440;2024-01-30T13:24:09;6.95;;;3.95;;
52674;SDS011;38569;52.722;6.440;2024-01-30T13:26:35;7.13;;;3.95;;
52674;SDS011;38569;52.722;6.440;2024-01-30T13:29:01;10.95;;;4.80;;
52674;SDS011;38569;52.722;6.440;2024-01-30T13:31:26;7.57;;;4.18;;
52674;SDS011;38569;52.722;6.440;2024-01-30T13:33:53;7.53;;;4.47;;
52674;SDS011;38569;52.722;6.440;2024-01-30T13:36:19;8.07;;;4.97;;
52674;SDS011;38569;52.722;6.440;2024-01-30T13:38:46;8.82;;;4.53;;
52674;SDS011;38569;52.722;6.440;2024-01-30T13:41:12;11.93;;;5.10;;
52674;SDS011;38569;52.722;6.440;2024-01-30T13:43:38;9.85;;;5.05;;
52674;SDS011;38569;52.722;6.440;2024-01-30T13:46:03;14.40;;;5.00;;
52674;SDS011;38569;52.722;6.440;2024-01-30T13:48:29;14.20;;;5.00;;
52674;SDS011;38569;52.722;6.440;2024-01-30T13:50:56;9.27;;;4.70;;
52674;SDS011;38569;52.722;6.440;2024-01-30T13:53:22;9.02;;;4.07;;
52674;SDS011;38569;52.722;6.440;2024-01-30T13:55:48;4.65;;;3.65;;
52674;SDS011;38569;52.722;6.440;2024-01-30T13:58:14;5.68;;;3.40;;
52674;SDS011;38569;52.722;6.440;2024-01-30T14:00:39;6.25;;;2.92;;
52674;SDS011;38569;52.722;6.440;2024-01-30T14:03:05;6.63;;;2.83;;
52674;SDS011;38569;52.722;6.440;2024-01-30T14:05:31;4.20;;;2.75;;
52674;SDS011;38569;52.722;6.440;2024-01-30T14:07:57;6.75;;;2.35;;
52674;SDS011;38569;52.722;6.440;2024-01-30T14:10:24;3.53;;;1.90;;
52674;SDS011;38569;52.722;6.440;2024-01-30T14:12:50;6.07;;;1.95;;
52674;SDS011;38569;52.722;6.440;2024-01-30T14:15:16;3.42;;;1.67;;
52674;SDS011;38569;52.722;6.440;2024-01-30T14:17:45;2.50;;;1.38;;
52674;SDS011;38569;52.722;6.440;2024-01-30T14:20:13;8.27;;;1.80;;
52674;SDS011;38569;52.722;6.440;2024-01-30T14:22:41;6.15;;;1.60;;
52674;SDS011;38569;52.722;6.440;2024-01-30T14:25:07;5.55;;;1.58;;
52674;SDS011;38569;52.722;6.440;2024-01-30T14:27:34;4.57;;;1.75;;